sensor_id;sensor_type;location;lat;lon;timestamp;P1;durP1;ratioP1;P2;durP2;ratioP2
20179;SDS011;10249;48.900;9.090;2023-05-28T00:01:18;12.10;;;11.70;;
20179;SDS011;10249;48.900;9.090;2023-05-28T00:03:46;12.10;;;11.70;;
20179;SDS011;10249;48.900;9.090;2023-05-28T00:06:13;11.50;;;11.10;;
20179;SDS011;10249;48.900;9.090;2023-05-28T00:08:40;11.50;;;11.10;;
20179;SDS011;10249;48.900;9.090;2023-05-28T00:11:07;11.50;;;11.10;;
20179;SDS011;10249;48.900;9.090;2023-05-28T00:13:34;11.23;;;10.83;;
20179;SDS011;10249;48.900;9.090;2023-05-28T00:16:01;11.13;;;10.73;;
20179;SDS011;10249;48.900;9.090;2023-05-28T00:18:30;11.23;;;10.83;;
20179;SDS011;10249;48.900;9.090;2023-05-28T00:20:57;11.10;;;10.70;;
20179;SDS011;10249;48.900;9.090;2023-05-28T00:23:25;10.50;;;10.20;;
20179;SDS011;10249;48.900;9.090;2023-05-28T00:25:52;10.70;;;10.40;;
20179;SDS011;10249;48.900;9.090;2023-05-28T00:28:20;10.93;;;10.53;;
20179;SDS011;10249;48.900;9.090;2023-05-28T00:30:47;10.57;;;10.27;;
20179;SDS011;10249;48.900;9.090;2023-05-28T00:33:14;10.70;;;10.40;;
20179;SDS011;10249;48.900;9.090;2023-05-28T00:35:42;10.60;;;10.30;;
20179;SDS011;10249;48.900;9.090;2023-05-28T00:38:09;10.90;;;10.50;;
20179;SDS011;10249;48.900;9.090;2023-05-28T00:40:36;10.80;;;10.40;;
20179;SDS011;10249;48.900;9.090;2023-05-28T00:43:03;10.90;;;10.50;;
20179;SDS011;10249;48.900;9.090;2023-05-28T00:45:32;10.83;;;10.43;;
20179;SDS011;10249;48.900;9.090;2023-05-28T00:47:59;10.10;;;9.80;;
20179;SDS011;10249;48.900;9.090;2023-05-28T00:50:26;10.17;;;9.87;;
20179;SDS011;10249;48.900;9.090;2023-05-28T00:52:55;10.53;;;10.23;;
20179;SDS011;10249;48.900;9.090;2023-05-28T00:55:22;10.50;;;10.20;;
20179;SDS011;10249;48.900;9.090;2023-05-28T00:57:49;10.60;;;10.30;;
20179;SDS011;10249;48.900;9.090;2023-05-28T01:00:18;10.33;;;10.03;;
20179;SDS011;10249;48.900;9.090;2023-05-28T01:02:45;10.40;;;10.10;;
20179;SDS011;10249;48.900;9.090;2023-05-28T01:05:12;10.40;;;10.10;;
20179;SDS011;10249;48.900;9.090;2023-05-28T01:07:40;10.27;;;9.97;;
20179;SDS011;10249;48.900;9.090;2023-05-28T01:10:09;10.60;;;10.30;;
20179;SDS011;10249;48.900;9.090;2023-05-28T01:12:36;10.20;;;9.90;;
20179;SDS011;10249;48.900;9.090;2023-05-28T01:15:05;10.20;;;9.90;;
20179;SDS011;10249;48.900;9.090;2023-05-28T01:17:32;10.20;;;9.90;;
20179;SDS011;10249;48.900;9.090;2023-05-28T01:19:59;10.07;;;9.77;;
20179;SDS011;10249;48.900;9.090;2023-05-28T01:22:36;10.23;;;9.93;;
20179;SDS011;10249;48.900;9.090;2023-05-28T01:25:05;10.40;;;10.10;;
20179;SDS011;10249;48.900;9.090;2023-05-28T01:27:34;9.90;;;9.60;;
20179;SDS011;10249;48.900;9.090;2023-05-28T01:30:02;10.00;;;9.70;;
20179;SDS011;10249;48.900;9.090;2023-05-28T01:32:30;9.90;;;9.60;;
20179;SDS011;10249;48.900;9.090;2023-05-28T01:34:57;9.83;;;9.53;;
20179;SDS011;10249;48.900;9.090;2023-05-28T01:37:25;9.80;;;9.50;;
20179;SDS011;10249;48.900;9.090;2023-05-28T01:39:52;9.90;;;9.60;;
20179;SDS011;10249;48.900;9.090;2023-05-28T01:42:21;9.87;;;9.57;;
20179;SDS011;10249;48.900;9.090;2023-05-28T01:44:48;9.80;;;9.50;;
20179;SDS011;10249;48.900;9.090;2023-05-28T01:47:16;9.97;;;9.67;;
20179;SDS011;10249;48.900;9.090;2023-05-28T01:49:44;9.80;;;9.50;;
20179;SDS011;10249;48.900;9.090;2023-05-28T01:52:12;9.80;;;9.50;;
20179;SDS011;10249;48.900;9.090;2023-05-28T01:54:39;9.40;;;9.10;;
20179;SDS011;10249;48.900;9.090;2023-05-28T01:57:06;9.30;;;9.00;;
20179;SDS011;10249;48.900;9.090;2023-05-28T01:59:35;9.60;;;9.30;;
20179;SDS011;10249;48.900;9.090;2023-05-28T02:02:02;9.67;;;9.37;;
20179;SDS011;10249;48.900;9.090;2023-05-28T02:04:29;9.60;;;9.30;;
20179;SDS011;10249;48.900;9.090;2023-05-28T02:06:56;9.80;;;9.50;;
20179;SDS011;10249;48.900;9.090;2023-05-28T02:09:23;10.00;;;9.70;;
20179;SDS011;10249;48.900;9.090;2023-05-28T02:11:50;10.10;;;9.80;;
20179;SDS011;10249;48.900;9.090;2023-05-28T02:14:17;9.80;;;9.50;;
20179;SDS011;10249;48.900;9.090;2023-05-28T02:16:46;10.00;;;9.70;;
20179;SDS011;10249;48.900;9.090;2023-05-28T02:19:14;9.50;;;9.20;;
20179;SDS011;10249;48.900;9.090;2023-05-28T02:21:41;9.33;;;9.03;;
20179;SDS011;10249;48.900;9.090;2023-05-28T02:24:08;9.70;;;9.40;;
20179;SDS011;10249;48.900;9.090;2023-05-28T02:26:35;9.63;;;9.33;;
20179;SDS011;10249;48.900;9.090;2023-05-28T02:29:03;10.00;;;9.70;;
20179;SDS011;10249;48.900;9.090;2023-05-28T02:31:30;10.00;;;9.70;;
20179;SDS011;10249;48.900;9.090;2023-05-28T02:33:58;9.73;;;9.43;;
20179;SDS011;10249;48.900;9.090;2023-05-28T02:36:25;9.80;;;9.50;;
20179;SDS011;10249;48.900;9.090;2023-05-28T02:38:54;9.80;;;9.50;;
20179;SDS011;10249;48.900;9.090;2023-05-28T02:41:22;9.60;;;9.30;;
20179;SDS011;10249;48.900;9.090;2023-05-28T02:43:49;9.60;;;9.30;;
20179;SDS011;10249;48.900;9.090;2023-05-28T02:46:16;9.30;;;9.00;;
20179;SDS011;10249;48.900;9.090;2023-05-28T02:48:43;9.20;;;8.90;;
20179;SDS011;10249;48.900;9.090;2023-05-28T02:51:12;9.07;;;8.77;;
20179;SDS011;10249;48.900;9.090;2023-05-28T02:53:39;9.23;;;8.93;;
20179;SDS011;10249;48.900;9.090;2023-05-28T02:56:06;9.30;;;9.00;;
20179;SDS011;10249;48.900;9.090;2023-05-28T02:58:33;8.90;;;8.60;;
20179;SDS011;10249;48.900;9.090;2023-05-28T03:01:01;8.90;;;8.60;;
20179;SDS011;10249;48.900;9.090;2023-05-28T03:03:28;8.70;;;8.40;;
20179;SDS011;10249;48.900;9.090;2023-05-28T03:05:55;7.90;;;7.70;;
20179;SDS011;10249;48.900;9.090;2023-05-28T03:08:24;8.03;;;7.83;;
20179;SDS011;10249;48.900;9.090;2023-05-28T03:10:51;8.43;;;8.13;;
20179;SDS011;10249;48.900;9.090;2023-05-28T03:13:18;8.40;;;8.10;;
20179;SDS011;10249;48.900;9.090;2023-05-28T03:15:45;8.47;;;8.17;;
20179;SDS011;10249;48.900;9.090;2023-05-28T03:18:12;8.40;;;8.10;;
20179;SDS011;10249;48.900;9.090;2023-05-28T03:20:39;8.10;;;7.90;;
20179;SDS011;10249;48.900;9.090;2023-05-28T03:23:06;8.20;;;8.00;;
20179;SDS011;10249;48.900;9.090;2023-05-28T03:25:34;7.60;;;7.40;;
20179;SDS011;10249;48.900;9.090;2023-05-28T03:28:01;7.47;;;7.27;;
20179;SDS011;10249;48.900;9.090;2023-05-28T03:30:28;6.93;;;6.73;;
20179;SDS011;10249;48.900;9.090;2023-05-28T03:32:55;6.73;;;6.53;;
20179;SDS011;10249;48.900;9.090;2023-05-28T03:35:22;6.67;;;6.47;;
20179;SDS011;10249;48.900;9.090;2023-05-28T03:37:50;6.23;;;6.03;;
20179;SDS011;10249;48.900;9.090;2023-05-28T03:40:17;6.50;;;6.30;;
20179;SDS011;10249;48.900;9.090;2023-05-28T03:42:45;6.57;;;6.37;;
20179;SDS011;10249;48.900;9.090;2023-05-28T03:45:13;6.10;;;5.90;;
20179;SDS011;10249;48.900;9.090;2023-05-28T03:47:40;6.37;;;6.17;;
20179;SDS011;10249;48.900;9.090;2023-05-28T03:50:07;6.67;;;6.47;;
20179;SDS011;10249;48.900;9.090;2023-05-28T03:52:35;6.57;;;6.37;;
20179;SDS011;10249;48.900;9.090;2023-05-28T03:55:02;6.80;;;6.60;;
20179;SDS011;10249;48.900;9.090;2023-05-28T03:57:29;7.00;;;6.80;;
20179;SDS011;10249;48.900;9.090;2023-05-28T03:59:58;7.10;;;6.90;;
20179;SDS011;10249;48.900;9.090;2023-05-28T04:02:25;6.87;;;6.67;;
20179;SDS011;10249;48.900;9.090;2023-05-28T04:04:52;7.47;;;7.27;;
20179;SDS011;10249;48.900;9.090;2023-05-28T04:07:19;7.90;;;7.70;;
20179;SDS011;10249;48.900;9.090;2023-05-28T04:09:46;7.30;;;7.10;;
20179;SDS011;10249;48.900;9.090;2023-05-28T04:12:13;7.50;;;7.30;;
20179;SDS011;10249;48.900;9.090;2023-05-28T04:14:40;7.70;;;7.50;;
20179;SDS011;10249;48.900;9.090;2023-05-28T04:17:09;7.63;;;7.43;;
20179;SDS011;10249;48.900;9.090;2023-05-28T04:19:37;7.57;;;7.37;;
20179;SDS011;10249;48.900;9.090;2023-05-28T04:22:05;7.73;;;7.53;;
20179;SDS011;10249;48.900;9.090;2023-05-28T04:24:32;7.53;;;7.33;;
20179;SDS011;10249;48.900;9.090;2023-05-28T04:27:00;7.50;;;7.30;;
20179;SDS011;10249;48.900;9.090;2023-05-28T04:29:27;7.60;;;7.40;;
20179;SDS011;10249;48.900;9.090;2023-05-28T04:31:55;6.60;;;6.40;;
20179;SDS011;10249;48.900;9.090;2023-05-28T04:34:23;6.40;;;6.20;;
20179;SDS011;10249;48.900;9.090;2023-05-28T04:36:50;6.67;;;6.47;;
20179;SDS011;10249;48.900;9.090;2023-05-28T04:39:17;6.63;;;6.43;;
20179;SDS011;10249;48.900;9.090;2023-05-28T04:41:46;6.80;;;6.60;;
20179;SDS011;10249;48.900;9.090;2023-05-28T04:44:13;7.07;;;6.87;;
20179;SDS011;10249;48.900;9.090;2023-05-28T04:46:41;7.10;;;6.90;;
20179;SDS011;10249;48.900;9.090;2023-05-28T04:49:10;7.50;;;7.30;;
20179;SDS011;10249;48.900;9.090;2023-05-28T04:51:38;7.70;;;7.50;;
20179;SDS011;10249;48.900;9.090;2023-05-28T04:54:06;8.13;;;7.93;;
20179;SDS011;10249;48.900;9.090;2023-05-28T04:56:33;8.50;;;8.20;;
20179;SDS011;10249;48.900;9.090;2023-05-28T04:59:00;9.00;;;8.70;;
20179;SDS011;10249;48.900;9.090;2023-05-28T05:01:30;9.00;;;8.70;;
20179;SDS011;10249;48.900;9.090;2023-05-28T05:03:57;9.07;;;8.77;;
20179;SDS011;10249;48.900;9.090;2023-05-28T05:06:25;8.83;;;8.53;;
20179;SDS011;10249;48.900;9.090;2023-05-28T05:08:53;9.37;;;9.07;;
20179;SDS011;10249;48.900;9.090;2023-05-28T05:11:20;9.30;;;9.00;;
20179;SDS011;10249;48.900;9.090;2023-05-28T05:13:48;9.10;;;8.80;;
20179;SDS011;10249;48.900;9.090;2023-05-28T05:16:15;9.40;;;9.10;;
20179;SDS011;10249;48.900;9.090;2023-05-28T05:18:42;9.40;;;9.10;;
20179;SDS011;10249;48.900;9.090;2023-05-28T05:21:09;10.00;;;9.70;;
20179;SDS011;10249;48.900;9.090;2023-05-28T05:23:38;10.33;;;10.03;;
20179;SDS011;10249;48.900;9.090;2023-05-28T05:26:06;10.17;;;9.87;;
20179;SDS011;10249;48.900;9.090;2023-05-28T05:28:37;10.20;;;9.90;;
20179;SDS011;10249;48.900;9.090;2023-05-28T05:31:04;10.00;;;9.70;;
20179;SDS011;10249;48.900;9.090;2023-05-28T05:33:31;10.27;;;9.97;;
20179;SDS011;10249;48.900;9.090;2023-05-28T05:35:59;10.50;;;10.20;;
20179;SDS011;10249;48.900;9.090;2023-05-28T05:38:26;11.20;;;10.80;;
20179;SDS011;10249;48.900;9.090;2023-05-28T05:40:53;10.90;;;10.50;;
20179;SDS011;10249;48.900;9.090;2023-05-28T05:43:21;11.10;;;10.70;;
20179;SDS011;10249;48.900;9.090;2023-05-28T05:45:48;10.50;;;10.20;;
20179;SDS011;10249;48.900;9.090;2023-05-28T05:48:15;10.90;;;10.50;;
20179;SDS011;10249;48.900;9.090;2023-05-28T05:50:49;11.07;;;10.67;;
20179;SDS011;10249;48.900;9.090;2023-05-28T05:53:16;11.23;;;10.83;;
20179;SDS011;10249;48.900;9.090;2023-05-28T05:55:43;11.23;;;10.83;;
20179;SDS011;10249;48.900;9.090;2023-05-28T05:58:10;11.60;;;11.20;;
20179;SDS011;10249;48.900;9.090;2023-05-28T06:00:39;11.57;;;11.17;;
20179;SDS011;10249;48.900;9.090;2023-05-28T06:03:07;11.60;;;11.20;;
20179;SDS011;10249;48.900;9.090;2023-05-28T06:05:34;11.53;;;11.13;;
20179;SDS011;10249;48.900;9.090;2023-05-28T06:08:01;11.17;;;10.77;;
20179;SDS011;10249;48.900;9.090;2023-05-28T06:10:28;11.37;;;10.97;;
20179;SDS011;10249;48.900;9.090;2023-05-28T06:12:55;11.40;;;11.00;;
20179;SDS011;10249;48.900;9.090;2023-05-28T06:15:26;11.50;;;11.10;;
20179;SDS011;10249;48.900;9.090;2023-05-28T06:17:55;11.80;;;11.40;;
20179;SDS011;10249;48.900;9.090;2023-05-28T06:20:22;11.77;;;11.37;;
20179;SDS011;10249;48.900;9.090;2023-05-28T06:22:49;11.93;;;11.53;;
20179;SDS011;10249;48.900;9.090;2023-05-28T06:25:16;12.20;;;11.80;;
20179;SDS011;10249;48.900;9.090;2023-05-28T06:27:46;12.37;;;11.97;;
20179;SDS011;10249;48.900;9.090;2023-05-28T06:30:13;12.40;;;12.00;;
20179;SDS011;10249;48.900;9.090;2023-05-28T06:32:41;12.17;;;11.77;;
20179;SDS011;10249;48.900;9.090;2023-05-28T06:35:09;12.90;;;12.40;;
20179;SDS011;10249;48.900;9.090;2023-05-28T06:37:37;12.37;;;11.97;;
20179;SDS011;10249;48.900;9.090;2023-05-28T06:40:04;12.70;;;12.30;;
20179;SDS011;10249;48.900;9.090;2023-05-28T06:42:32;13.00;;;12.50;;
20179;SDS011;10249;48.900;9.090;2023-05-28T06:44:59;12.83;;;12.33;;
20179;SDS011;10249;48.900;9.090;2023-05-28T06:47:26;13.00;;;12.50;;
20179;SDS011;10249;48.900;9.090;2023-05-28T06:49:53;13.10;;;12.60;;
20179;SDS011;10249;48.900;9.090;2023-05-28T06:52:22;13.20;;;12.70;;
20179;SDS011;10249;48.900;9.090;2023-05-28T06:54:50;13.10;;;12.60;;
20179;SDS011;10249;48.900;9.090;2023-05-28T06:57:17;13.40;;;12.90;;
20179;SDS011;10249;48.900;9.090;2023-05-28T06:59:44;13.70;;;13.20;;
20179;SDS011;10249;48.900;9.090;2023-05-28T07:02:11;13.50;;;13.00;;
20179;SDS011;10249;48.900;9.090;2023-05-28T07:04:38;13.70;;;13.20;;
20179;SDS011;10249;48.900;9.090;2023-05-28T07:07:05;13.90;;;13.40;;
20179;SDS011;10249;48.900;9.090;2023-05-28T07:09:34;13.87;;;13.37;;
20179;SDS011;10249;48.900;9.090;2023-05-28T07:12:01;13.80;;;13.30;;
20179;SDS011;10249;48.900;9.090;2023-05-28T07:14:28;13.30;;;12.80;;
20179;SDS011;10249;48.900;9.090;2023-05-28T07:16:55;13.37;;;12.87;;
20179;SDS011;10249;48.900;9.090;2023-05-28T07:19:22;13.30;;;12.80;;
20179;SDS011;10249;48.900;9.090;2023-05-28T07:21:49;13.50;;;13.00;;
20179;SDS011;10249;48.900;9.090;2023-05-28T07:24:16;13.57;;;13.07;;
20179;SDS011;10249;48.900;9.090;2023-05-28T07:26:45;13.53;;;13.03;;
20179;SDS011;10249;48.900;9.090;2023-05-28T07:29:12;16.37;;;15.60;;
20179;SDS011;10249;48.900;9.090;2023-05-28T07:31:41;13.80;;;13.30;;
20179;SDS011;10249;48.900;9.090;2023-05-28T07:34:08;14.00;;;13.50;;
20179;SDS011;10249;48.900;9.090;2023-05-28T07:36:36;13.83;;;13.27;;
20179;SDS011;10249;48.900;9.090;2023-05-28T07:39:03;13.70;;;13.20;;
20179;SDS011;10249;48.900;9.090;2023-05-28T07:41:30;14.07;;;13.47;;
20179;SDS011;10249;48.900;9.090;2023-05-28T07:44:00;14.10;;;13.50;;
20179;SDS011;10249;48.900;9.090;2023-05-28T07:46:27;14.20;;;13.60;;
20179;SDS011;10249;48.900;9.090;2023-05-28T07:48:54;14.17;;;13.57;;
20179;SDS011;10249;48.900;9.090;2023-05-28T07:51:22;14.30;;;13.70;;
20179;SDS011;10249;48.900;9.090;2023-05-28T07:53:51;14.27;;;13.67;;
20179;SDS011;10249;48.900;9.090;2023-05-28T07:56:18;14.40;;;13.80;;
20179;SDS011;10249;48.900;9.090;2023-05-28T07:58:45;14.50;;;13.90;;
20179;SDS011;10249;48.900;9.090;2023-05-28T08:01:14;14.40;;;13.80;;
20179;SDS011;10249;48.900;9.090;2023-05-28T08:03:41;14.30;;;13.70;;
20179;SDS011;10249;48.900;9.090;2023-05-28T08:06:08;14.10;;;13.50;;
20179;SDS011;10249;48.900;9.090;2023-05-28T08:08:35;14.13;;;13.53;;
20179;SDS011;10249;48.900;9.090;2023-05-28T08:11:02;14.03;;;13.43;;
20179;SDS011;10249;48.900;9.090;2023-05-28T08:13:29;14.37;;;13.77;;
20179;SDS011;10249;48.900;9.090;2023-05-28T08:15:57;14.23;;;13.63;;
20179;SDS011;10249;48.900;9.090;2023-05-28T08:18:26;14.20;;;13.60;;
20179;SDS011;10249;48.900;9.090;2023-05-28T08:20:53;14.20;;;13.60;;
20179;SDS011;10249;48.900;9.090;2023-05-28T08:23:20;14.07;;;13.47;;
20179;SDS011;10249;48.900;9.090;2023-05-28T08:25:48;14.23;;;13.63;;
20179;SDS011;10249;48.900;9.090;2023-05-28T08:28:16;14.30;;;13.70;;
20179;SDS011;10249;48.900;9.090;2023-05-28T08:30:43;14.03;;;13.43;;
20179;SDS011;10249;48.900;9.090;2023-05-28T08:33:10;14.53;;;13.93;;
20179;SDS011;10249;48.900;9.090;2023-05-28T08:35:39;14.40;;;13.80;;
20179;SDS011;10249;48.900;9.090;2023-05-28T08:38:06;15.03;;;14.33;;
20179;SDS011;10249;48.900;9.090;2023-05-28T08:40:34;15.17;;;14.47;;
20179;SDS011;10249;48.900;9.090;2023-05-28T08:43:05;14.77;;;14.17;;
20179;SDS011;10249;48.900;9.090;2023-05-28T08:45:32;14.70;;;14.10;;
20179;SDS011;10249;48.900;9.090;2023-05-28T08:48:00;14.83;;;14.23;;
20179;SDS011;10249;48.900;9.090;2023-05-28T08:50:27;14.70;;;14.00;;
20179;SDS011;10249;48.900;9.090;2023-05-28T08:52:57;14.50;;;13.90;;
20179;SDS011;10249;48.900;9.090;2023-05-28T08:55:26;14.70;;;14.00;;
20179;SDS011;10249;48.900;9.090;2023-05-28T08:57:53;14.90;;;14.20;;
20179;SDS011;10249;48.900;9.090;2023-05-28T09:00:21;15.03;;;14.33;;
20179;SDS011;10249;48.900;9.090;2023-05-28T09:02:48;14.60;;;14.00;;
20179;SDS011;10249;48.900;9.090;2023-05-28T09:05:16;14.30;;;13.70;;
20179;SDS011;10249;48.900;9.090;2023-05-28T09:07:43;14.80;;;14.20;;
20179;SDS011;10249;48.900;9.090;2023-05-28T09:10:12;14.63;;;14.03;;
20179;SDS011;10249;48.900;9.090;2023-05-28T09:12:39;14.37;;;13.77;;
20179;SDS011;10249;48.900;9.090;2023-05-28T09:15:07;14.53;;;13.93;;
20179;SDS011;10249;48.900;9.090;2023-05-28T09:17:35;14.60;;;14.00;;
20179;SDS011;10249;48.900;9.090;2023-05-28T09:20:08;14.53;;;13.93;;
20179;SDS011;10249;48.900;9.090;2023-05-28T09:22:37;14.50;;;13.90;;
20179;SDS011;10249;48.900;9.090;2023-05-28T09:25:05;14.50;;;13.90;;
20179;SDS011;10249;48.900;9.090;2023-05-28T09:27:34;14.67;;;14.07;;
20179;SDS011;10249;48.900;9.090;2023-05-28T09:30:02;14.80;;;14.20;;
20179;SDS011;10249;48.900;9.090;2023-05-28T09:32:30;14.93;;;14.23;;
20179;SDS011;10249;48.900;9.090;2023-05-28T09:34:58;15.10;;;14.40;;
20179;SDS011;10249;48.900;9.090;2023-05-28T09:37:27;14.80;;;14.20;;
20179;SDS011;10249;48.900;9.090;2023-05-28T09:39:59;14.63;;;14.03;;
20179;SDS011;10249;48.900;9.090;2023-05-28T09:42:27;14.50;;;13.90;;
20179;SDS011;10249;48.900;9.090;2023-05-28T09:45:01;14.77;;;14.17;;
20179;SDS011;10249;48.900;9.090;2023-05-28T09:47:29;15.10;;;14.40;;
20179;SDS011;10249;48.900;9.090;2023-05-28T09:49:56;14.90;;;14.30;;
20179;SDS011;10249;48.900;9.090;2023-05-28T09:52:23;15.60;;;14.90;;
20179;SDS011;10249;48.900;9.090;2023-05-28T09:54:51;15.57;;;14.87;;
20179;SDS011;10249;48.900;9.090;2023-05-28T09:57:20;15.20;;;14.50;;
20179;SDS011;10249;48.900;9.090;2023-05-28T09:59:50;15.40;;;14.70;;
20179;SDS011;10249;48.900;9.090;2023-05-28T10:02:22;15.40;;;14.70;;
20179;SDS011;10249;48.900;9.090;2023-05-28T10:04:52;15.57;;;14.87;;
20179;SDS011;10249;48.900;9.090;2023-05-28T10:07:21;15.67;;;14.97;;
20179;SDS011;10249;48.900;9.090;2023-05-28T10:09:48;16.53;;;15.83;;
20179;SDS011;10249;48.900;9.090;2023-05-28T10:12:17;15.90;;;15.20;;
20179;SDS011;10249;48.900;9.090;2023-05-28T10:14:44;15.90;;;15.20;;
20179;SDS011;10249;48.900;9.090;2023-05-28T10:17:12;16.63;;;15.93;;
20179;SDS011;10249;48.900;9.090;2023-05-28T10:19:41;15.60;;;14.90;;
20179;SDS011;10249;48.900;9.090;2023-05-28T10:22:10;15.37;;;14.67;;
20179;SDS011;10249;48.900;9.090;2023-05-28T10:24:37;14.20;;;13.50;;
20179;SDS011;10249;48.900;9.090;2023-05-28T10:27:04;15.40;;;14.70;;
20179;SDS011;10249;48.900;9.090;2023-05-28T10:29:37;14.97;;;14.27;;
20179;SDS011;10249;48.900;9.090;2023-05-28T10:32:04;14.83;;;14.13;;
20179;SDS011;10249;48.900;9.090;2023-05-28T10:34:31;15.80;;;15.10;;
20179;SDS011;10249;48.900;9.090;2023-05-28T10:37:01;15.90;;;15.20;;
20179;SDS011;10249;48.900;9.090;2023-05-28T10:39:36;15.70;;;15.00;;
20179;SDS011;10249;48.900;9.090;2023-05-28T10:42:04;15.57;;;14.87;;
20179;SDS011;10249;48.900;9.090;2023-05-28T10:47:13;15.17;;;14.47;;
20179;SDS011;10249;48.900;9.090;2023-05-28T10:49:46;15.07;;;14.37;;
20179;SDS011;10249;48.900;9.090;2023-05-28T10:52:25;15.30;;;14.60;;
20179;SDS011;10249;48.900;9.090;2023-05-28T10:54:52;15.07;;;14.37;;
20179;SDS011;10249;48.900;9.090;2023-05-28T10:57:20;15.10;;;14.40;;
20179;SDS011;10249;48.900;9.090;2023-05-28T10:59:48;15.20;;;14.50;;
20179;SDS011;10249;48.900;9.090;2023-05-28T11:02:16;15.00;;;14.30;;
20179;SDS011;10249;48.900;9.090;2023-05-28T11:04:44;15.00;;;14.30;;
20179;SDS011;10249;48.900;9.090;2023-05-28T11:07:11;15.17;;;14.47;;
20179;SDS011;10249;48.900;9.090;2023-05-28T11:09:40;15.60;;;14.90;;
20179;SDS011;10249;48.900;9.090;2023-05-28T11:12:07;14.57;;;13.87;;
20179;SDS011;10249;48.900;9.090;2023-05-28T11:14:35;14.60;;;13.90;;
20179;SDS011;10249;48.900;9.090;2023-05-28T11:17:09;14.80;;;14.10;;
20179;SDS011;10249;48.900;9.090;2023-05-28T11:19:42;14.50;;;13.80;;
20179;SDS011;10249;48.900;9.090;2023-05-28T11:22:10;14.70;;;14.00;;
20179;SDS011;10249;48.900;9.090;2023-05-28T11:24:51;14.67;;;13.97;;
20179;SDS011;10249;48.900;9.090;2023-05-28T11:27:20;14.50;;;13.90;;
20179;SDS011;10249;48.900;9.090;2023-05-28T11:29:47;14.57;;;13.88;;
20179;SDS011;10249;48.900;9.090;2023-05-28T11:32:14;14.55;;;13.85;;
20179;SDS011;10249;48.900;9.090;2023-05-28T11:34:44;14.27;;;13.68;;
20179;SDS011;10249;48.900;9.090;2023-05-28T11:37:13;14.77;;;14.07;;
20179;SDS011;10249;48.900;9.090;2023-05-28T11:39:47;14.38;;;13.77;;
20179;SDS011;10249;48.900;9.090;2023-05-28T11:42:15;14.30;;;13.70;;
20179;SDS011;10249;48.900;9.090;2023-05-28T11:44:43;14.70;;;14.00;;
20179;SDS011;10249;48.900;9.090;2023-05-28T11:47:11;14.25;;;13.65;;
20179;SDS011;10249;48.900;9.090;2023-05-28T11:49:38;14.60;;;13.90;;
20179;SDS011;10249;48.900;9.090;2023-05-28T11:52:05;14.52;;;13.82;;
20179;SDS011;10249;48.900;9.090;2023-05-28T11:54:36;14.45;;;13.80;;
20179;SDS011;10249;48.900;9.090;2023-05-28T11:57:03;14.80;;;14.10;;
20179;SDS011;10249;48.900;9.090;2023-05-28T11:59:32;14.57;;;13.88;;
20179;SDS011;10249;48.900;9.090;2023-05-28T12:02:09;14.80;;;14.10;;
20179;SDS011;10249;48.900;9.090;2023-05-28T12:04:36;14.32;;;13.73;;
20179;SDS011;10249;48.900;9.090;2023-05-28T12:07:04;14.52;;;13.82;;
20179;SDS011;10249;48.900;9.090;2023-05-28T12:09:31;14.50;;;13.82;;
20179;SDS011;10249;48.900;9.090;2023-05-28T12:12:02;14.55;;;13.85;;
20179;SDS011;10249;48.900;9.090;2023-05-28T12:14:30;14.57;;;13.88;;
20179;SDS011;10249;48.900;9.090;2023-05-28T12:17:04;14.30;;;13.70;;
20179;SDS011;10249;48.900;9.090;2023-05-28T12:19:32;14.35;;;13.75;;
20179;SDS011;10249;48.900;9.090;2023-05-28T12:21:59;14.80;;;14.00;;
20179;SDS011;10249;48.900;9.090;2023-05-28T12:24:27;14.52;;;13.82;;
20179;SDS011;10249;48.900;9.090;2023-05-28T12:26:54;14.52;;;13.82;;
20179;SDS011;10249;48.900;9.090;2023-05-28T12:29:21;14.60;;;13.90;;
20179;SDS011;10249;48.900;9.090;2023-05-28T12:31:57;14.73;;;14.02;;
20179;SDS011;10249;48.900;9.090;2023-05-28T12:34:26;14.70;;;14.00;;
20179;SDS011;10249;48.900;9.090;2023-05-28T12:36:53;14.55;;;13.85;;
20179;SDS011;10249;48.900;9.090;2023-05-28T12:39:20;14.55;;;13.85;;
20179;SDS011;10249;48.900;9.090;2023-05-28T12:41:47;14.50;;;13.80;;
20179;SDS011;10249;48.900;9.090;2023-05-28T12:44:14;14.50;;;13.80;;
20179;SDS011;10249;48.900;9.090;2023-05-28T12:46:41;14.45;;;13.75;;
20179;SDS011;10249;48.900;9.090;2023-05-28T12:49:08;14.45;;;13.75;;
20179;SDS011;10249;48.900;9.090;2023-05-28T12:51:37;14.57;;;13.88;;
20179;SDS011;10249;48.900;9.090;2023-05-28T12:54:04;14.43;;;13.73;;
20179;SDS011;10249;48.900;9.090;2023-05-28T12:56:31;14.43;;;13.73;;
20179;SDS011;10249;48.900;9.090;2023-05-28T12:58:58;14.32;;;13.63;;
20179;SDS011;10249;48.900;9.090;2023-05-28T13:01:25;14.52;;;13.82;;
20179;SDS011;10249;48.900;9.090;2023-05-28T13:03:52;14.30;;;13.70;;
20179;SDS011;10249;48.900;9.090;2023-05-28T13:06:20;14.15;;;13.55;;
20179;SDS011;10249;48.900;9.090;2023-05-28T13:08:49;14.32;;;13.65;;
20179;SDS011;10249;48.900;9.090;2023-05-28T13:11:16;14.15;;;13.55;;
20179;SDS011;10249;48.900;9.090;2023-05-28T13:13:43;14.73;;;14.02;;
20179;SDS011;10249;48.900;9.090;2023-05-28T13:16:10;14.70;;;14.00;;
20179;SDS011;10249;48.900;9.090;2023-05-28T13:18:37;14.45;;;13.77;;
20179;SDS011;10249;48.900;9.090;2023-05-28T13:21:04;14.57;;;13.88;;
20179;SDS011;10249;48.900;9.090;2023-05-28T13:23:31;14.35;;;13.75;;
20179;SDS011;10249;48.900;9.090;2023-05-28T13:25:59;15.10;;;14.40;;
20179;SDS011;10249;48.900;9.090;2023-05-28T13:28:26;14.65;;;13.95;;
20179;SDS011;10249;48.900;9.090;2023-05-28T13:30:53;14.48;;;13.80;;
20179;SDS011;10249;48.900;9.090;2023-05-28T13:33:21;14.55;;;13.85;;
20179;SDS011;10249;48.900;9.090;2023-05-28T13:35:48;14.48;;;13.88;;
20179;SDS011;10249;48.900;9.090;2023-05-28T13:38:15;14.50;;;13.90;;
20179;SDS011;10249;48.900;9.090;2023-05-28T13:40:44;14.48;;;13.88;;
20179;SDS011;10249;48.900;9.090;2023-05-28T13:43:12;14.40;;;13.80;;
20179;SDS011;10249;48.900;9.090;2023-05-28T13:45:40;14.30;;;13.70;;
20179;SDS011;10249;48.900;9.090;2023-05-28T13:48:07;14.38;;;13.77;;
20179;SDS011;10249;48.900;9.090;2023-05-28T13:50:34;14.15;;;13.55;;
20179;SDS011;10249;48.900;9.090;2023-05-28T13:53:01;14.70;;;14.10;;
20179;SDS011;10249;48.900;9.090;2023-05-28T13:55:28;14.20;;;13.60;;
20179;SDS011;10249;48.900;9.090;2023-05-28T13:57:55;14.27;;;13.68;;
20179;SDS011;10249;48.900;9.090;2023-05-28T14:00:24;14.38;;;13.77;;
20179;SDS011;10249;48.900;9.090;2023-05-28T14:02:51;14.40;;;13.80;;
20179;SDS011;10249;48.900;9.090;2023-05-28T14:05:18;14.23;;;13.63;;
20179;SDS011;10249;48.900;9.090;2023-05-28T14:07:45;14.30;;;13.70;;
20179;SDS011;10249;48.900;9.090;2023-05-28T14:10:12;14.30;;;13.70;;
20179;SDS011;10249;48.900;9.090;2023-05-28T14:12:39;14.68;;;14.07;;
20179;SDS011;10249;48.900;9.090;2023-05-28T14:15:06;14.57;;;13.98;;
20179;SDS011;10249;48.900;9.090;2023-05-28T14:17:35;14.60;;;14.00;;
20179;SDS011;10249;48.900;9.090;2023-05-28T14:20:02;14.43;;;13.82;;
20179;SDS011;10249;48.900;9.090;2023-05-28T14:22:30;14.88;;;14.27;;
20179;SDS011;10249;48.900;9.090;2023-05-28T14:24:57;14.40;;;13.80;;
20179;SDS011;10249;48.900;9.090;2023-05-28T14:27:24;14.35;;;13.75;;
20179;SDS011;10249;48.900;9.090;2023-05-28T14:29:51;14.52;;;13.93;;
20179;SDS011;10249;48.900;9.090;2023-05-28T14:32:18;14.55;;;13.95;;
20179;SDS011;10249;48.900;9.090;2023-05-28T14:34:47;14.45;;;13.85;;